Time;durP1;ratioP1;P1;durP2;ratioP2;P2;SDS_P1;SDS_P2;PMS_P1;PMS_P2;Temp;Humidity;BMP_temperature;BMP_pressure;BME280_temperature;BME280_humidity;BME280_pressure;Samples;Min_cycle;Max_cycle;Signal;HPM_P1;HPM_P2
2021/03/19 00:01:24;;;;;;;35.53;19.92;;;5.00;99.90;;;;;;5055176;28;20021;-57
2021/03/19 00:03:50;;;;;;;41.13;19.38;;;5.10;99.90;;;;;;5064573;28;20481;-57
2021/03/19 00:06:16;;;;;;;31.23;18.65;;;5.00;99.90;;;;;;5060476;28;20028;-57
2021/03/19 00:08:41;;;;;;;34.33;18.15;;;5.00;99.90;;;;;;5055611;28;20115;-59
2021/03/19 00:11:07;;;;;;;26.27;15.00;;;5.00;99.90;;;;;;5061224;28;20058;-57
2021/03/19 00:13:32;;;;;;;32.42;18.23;;;4.90;99.90;;;;;;5063724;28;20058;-58
2021/03/19 00:15:58;;;;;;;28.30;16.13;;;4.90;99.90;;;;;;5054251;28;20394;-58
2021/03/19 00:18:24;;;;;;;29.80;15.57;;;4.80;99.90;;;;;;5060172;28;20028;-58
2021/03/19 00:20:49;;;;;;;27.98;15.40;;;4.80;99.90;;;;;;5052881;28;20155;-58
2021/03/19 00:23:16;;;;;;;33.13;16.60;;;4.80;99.90;;;;;;5061605;28;20020;-58
2021/03/19 00:25:42;;;;;;;30.88;17.15;;;4.70;99.90;;;;;;5055404;28;20076;-58
2021/03/19 00:28:13;;;;;;;29.20;16.65;;;4.70;99.90;;;;;;5053100;28;20040;-58
2021/03/19 00:30:39;;;;;;;31.83;17.20;;;4.70;99.90;;;;;;5061289;28;20028;-58
2021/03/19 00:33:05;;;;;;;34.78;17.70;;;4.60;99.90;;;;;;5054420;28;20036;-58
2021/03/19 00:35:31;;;;;;;29.65;16.92;;;4.60;99.90;;;;;;5050303;28;20399;-58
2021/03/19 00:37:57;;;;;;;32.40;16.55;;;4.60;99.90;;;;;;5050592;28;20479;-61
2021/03/19 00:40:23;;;;;;;29.92;17.05;;;4.50;99.90;;;;;;5062174;28;20025;-58
2021/03/19 00:42:48;;;;;;;29.95;18.15;;;4.50;99.90;;;;;;5053293;28;20020;-58
2021/03/19 00:45:16;;;;;;;32.22;18.17;;;4.50;99.90;;;;;;5053356;28;20021;-57
2021/03/19 00:47:42;;;;;;;33.05;17.15;;;4.40;99.90;;;;;;5053676;28;20024;-59
2021/03/19 00:50:10;;;;;;;36.35;19.05;;;4.40;99.90;;;;;;5054944;28;20399;-58
2021/03/19 00:52:37;;;;;;;38.83;18.42;;;4.40;99.90;;;;;;5052159;28;20021;-58
2021/03/19 00:55:05;;;;;;;30.52;17.17;;;4.40;99.90;;;;;;5062628;28;20028;-58
2021/03/19 00:57:31;;;;;;;34.72;18.42;;;4.30;99.90;;;;;;5055403;28;20494;-58
2021/03/19 00:59:56;;;;;;;34.60;19.75;;;4.40;99.90;;;;;;5050381;28;20222;-56
2021/03/19 01:02:22;;;;;;;34.50;19.67;;;4.30;99.90;;;;;;5063719;28;20027;-59
2021/03/19 01:04:48;;;;;;;37.65;19.95;;;4.30;99.90;;;;;;5062718;28;20032;-59
2021/03/19 01:07:13;;;;;;;35.28;20.42;;;4.30;99.90;;;;;;5065334;28;20508;-59
2021/03/19 01:09:39;;;;;;;37.75;21.95;;;4.30;99.90;;;;;;5056136;28;20113;-57
2021/03/19 01:12:05;;;;;;;34.40;19.80;;;4.30;99.90;;;;;;5070998;28;20082;-58
2021/03/19 01:14:30;;;;;;;32.38;18.15;;;4.20;99.90;;;;;;5055275;28;20055;-56
2021/03/19 01:16:56;;;;;;;28.15;17.17;;;4.30;99.90;;;;;;5069074;28;20079;-59
2021/03/19 01:19:21;;;;;;;28.98;17.20;;;4.30;99.90;;;;;;5063305;28;20032;-58
2021/03/19 01:21:47;;;;;;;32.05;17.02;;;4.30;99.90;;;;;;5061353;28;20470;-59
2021/03/19 01:24:13;;;;;;;27.98;15.63;;;4.30;99.90;;;;;;5058232;28;20047;-59
2021/03/19 01:26:38;;;;;;;28.98;15.35;;;4.30;99.90;;;;;;5064288;28;20025;-59
2021/03/19 01:29:08;;;;;;;27.05;15.95;;;4.20;99.90;;;;;;5066884;28;20127;-59
2021/03/19 01:31:33;;;;;;;33.10;16.55;;;4.20;99.90;;;;;;5054605;28;20032;-59
2021/03/19 01:34:00;;;;;;;27.23;16.02;;;4.20;99.90;;;;;;5056962;28;20382;-59
2021/03/19 01:36:26;;;;;;;26.92;16.70;;;4.20;99.90;;;;;;5056271;28;20158;-56
2021/03/19 01:38:51;;;;;;;27.48;16.77;;;4.10;99.90;;;;;;5061131;28;20183;-55
2021/03/19 01:41:17;;;;;;;30.63;18.30;;;4.10;99.90;;;;;;5061233;28;20051;-59
2021/03/19 01:44:13;;;;;;;27.55;17.13;;;4.00;99.90;;;;;;5059140;28;20024;-58
2021/03/19 01:47:16;;;;;;;31.25;17.40;;;4.00;99.90;;;;;;5059775;28;20104;-57
2021/03/19 01:50:19;;;;;;;31.65;17.85;;;4.00;99.90;;;;;;5051883;28;20060;-58
2021/03/19 01:53:22;;;;;;;33.00;19.02;;;4.00;99.90;;;;;;5062227;28;20024;-57
2021/03/19 01:56:25;;;;;;;37.08;19.38;;;3.90;99.90;;;;;;5062698;28;20048;-58
2021/03/19 01:59:27;;;;;;;35.03;19.40;;;3.90;99.90;;;;;;5056836;28;20507;-58
2021/03/19 02:02:30;;;;;;;41.22;20.15;;;3.80;99.90;;;;;;5058760;28;20021;-58
2021/03/19 02:05:33;;;;;;;33.03;19.92;;;3.90;99.90;;;;;;5057497;28;20028;-56
2021/03/19 02:08:36;;;;;;;39.40;20.65;;;3.80;99.90;;;;;;5062026;28;20116;-58
2021/03/19 02:11:39;;;;;;;35.75;20.15;;;3.90;99.90;;;;;;5058525;28;20056;-57
2021/03/19 02:14:42;;;;;;;35.00;19.83;;;3.90;99.90;;;;;;5053788;28;20101;-59
2021/03/19 02:17:45;;;;;;;34.92;21.35;;;3.80;99.90;;;;;;5065507;28;20659;-57
2021/03/19 02:20:48;;;;;;;37.38;20.88;;;3.80;99.90;;;;;;5058333;28;20040;-58
2021/03/19 02:23:51;;;;;;;37.15;21.08;;;3.90;99.90;;;;;;5058951;28;20044;-58
2021/03/19 02:26:53;;;;;;;38.40;21.70;;;3.90;99.90;;;;;;5057386;28;20056;-58
2021/03/19 02:29:57;;;;;;;41.42;22.73;;;3.90;99.90;;;;;;5056914;28;20208;-59
2021/03/19 02:32:25;;;;;;;40.88;21.60;;;3.90;99.90;;;;;;5057208;28;20032;-58
2021/03/19 02:34:58;;;;;;;43.67;22.38;;;3.90;99.90;;;;;;5066145;28;20094;-58
2021/03/19 02:37:29;;;;;;;37.33;22.17;;;3.90;99.90;;;;;;5062687;28;20017;-57
2021/03/19 02:39:55;;;;;;;42.42;23.77;;;3.90;99.90;;;;;;5057469;28;20029;-57
2021/03/19 02:42:24;;;;;;;43.15;24.35;;;3.90;99.90;;;;;;5052722;28;20032;-58
2021/03/19 02:44:50;;;;;;;43.53;22.45;;;3.80;99.90;;;;;;5062455;28;20028;-58
2021/03/19 02:47:16;;;;;;;40.20;22.95;;;3.80;99.90;;;;;;5062214;28;20107;-57
2021/03/19 02:49:42;;;;;;;40.63;22.00;;;3.80;99.90;;;;;;5056901;28;20025;-58
2021/03/19 02:52:07;;;;;;;42.78;23.42;;;3.80;99.90;;;;;;5058226;28;20514;-56
2021/03/19 02:54:33;;;;;;;38.70;23.17;;;3.70;99.90;;;;;;5058451;28;20044;-58
2021/03/19 02:56:59;;;;;;;41.17;23.48;;;3.70;99.90;;;;;;5065671;28;20071;-57
2021/03/19 02:59:24;;;;;;;41.92;24.27;;;3.70;99.90;;;;;;5056965;28;20043;-57
2021/03/19 03:01:51;;;;;;;45.00;25.27;;;3.60;99.90;;;;;;5059140;28;20548;-59
2021/03/19 03:04:18;;;;;;;39.42;23.60;;;3.60;99.90;;;;;;5061944;28;20025;-57
2021/03/19 03:06:46;;;;;;;44.40;25.05;;;3.60;99.90;;;;;;5051251;28;20078;-58
2021/03/19 03:09:17;;;;;;;41.72;23.27;;;3.50;99.90;;;;;;5053912;28;20477;-56
2021/03/19 03:11:44;;;;;;;44.20;25.15;;;3.40;99.90;;;;;;5057561;28;20445;-58
2021/03/19 03:14:14;;;;;;;42.35;23.05;;;3.50;99.90;;;;;;5057436;28;20029;-57
2021/03/19 03:16:41;;;;;;;38.55;22.38;;;3.50;99.90;;;;;;5060383;28;20506;-58
2021/03/19 03:19:09;;;;;;;45.13;24.88;;;3.50;99.90;;;;;;5064699;28;20025;-59
2021/03/19 03:21:34;;;;;;;45.08;25.40;;;3.40;99.90;;;;;;5054864;28;20033;-58
2021/03/19 03:24:01;;;;;;;44.25;23.98;;;3.40;99.90;;;;;;5096511;22;20090;-58
2021/03/19 03:26:28;;;;;;;44.47;25.30;;;3.40;99.90;;;;;;5126957;27;20442;-56
2021/03/19 03:28:53;;;;;;;44.15;23.27;;;3.40;99.90;;;;;;5122454;27;20035;-56
2021/03/19 03:31:19;;;;;;;44.88;24.65;;;3.40;99.90;;;;;;5129114;27;20038;-56
2021/03/19 03:33:45;;;;;;;52.10;26.08;;;3.30;99.90;;;;;;5122062;27;20039;-55
2021/03/19 03:36:11;;;;;;;49.45;26.63;;;3.30;99.90;;;;;;5126734;27;20020;-57
2021/03/19 03:38:37;;;;;;;49.95;24.35;;;3.30;99.90;;;;;;5111419;27;20088;-57
2021/03/19 03:41:10;;;;;;;51.78;24.88;;;3.30;99.90;;;;;;5111555;27;20051;-55
2021/03/19 03:43:36;;;;;;;49.30;26.35;;;3.30;99.90;;;;;;5114044;27;20058;-56
2021/03/19 03:46:04;;;;;;;49.72;26.27;;;3.30;99.90;;;;;;5108260;27;20024;-55
2021/03/19 03:48:31;;;;;;;44.85;25.40;;;3.30;99.90;;;;;;5111636;28;20039;-56
2021/03/19 03:50:59;;;;;;;54.15;26.85;;;3.30;99.90;;;;;;5112965;27;20034;-55
2021/03/19 03:53:26;;;;;;;44.50;25.38;;;3.30;99.90;;;;;;5114705;27;20035;-56
2021/03/19 03:55:51;;;;;;;51.50;25.15;;;3.30;99.90;;;;;;5118079;27;20038;-55
2021/03/19 03:58:18;;;;;;;45.20;26.45;;;3.30;99.90;;;;;;5126566;27;20035;-56
2021/03/19 04:00:44;;;;;;;50.10;26.95;;;3.30;99.90;;;;;;5106840;27;20028;-56
2021/03/19 04:03:11;;;;;;;55.28;27.05;;;3.30;99.90;;;;;;5122098;27;20508;-56
2021/03/19 04:05:43;;;;;;;48.25;24.98;;;3.30;99.90;;;;;;5114690;27;20016;-57
2021/03/19 04:08:11;;;;;;;52.95;26.55;;;3.20;99.90;;;;;;5098270;28;20062;-56
2021/03/19 04:10:38;;;;;;;48.28;25.13;;;3.20;99.90;;;;;;5128736;27;20027;-57
2021/03/19 04:13:05;;;;;;;48.58;25.98;;;3.20;99.90;;;;;;5124850;27;20051;-57
2021/03/19 04:15:31;;;;;;;52.85;27.38;;;3.10;99.90;;;;;;5109498;27;20024;-57
2021/03/19 04:17:59;;;;;;;50.42;27.92;;;3.10;99.90;;;;;;5106908;28;20367;-56
2021/03/19 04:20:26;;;;;;;53.92;25.38;;;3.10;99.90;;;;;;5110827;28;20024;-57
2021/03/19 04:22:52;;;;;;;50.75;26.85;;;3.10;99.90;;;;;;5105625;28;20388;-57
2021/03/19 04:25:18;;;;;;;44.92;25.33;;;3.10;99.90;;;;;;5118930;27;20039;-56
2021/03/19 04:27:49;;;;;;;50.80;23.88;;;3.10;99.90;;;;;;5120270;27;20028;-56
2021/03/19 04:30:21;;;;;;;52.33;24.95;;;3.20;99.90;;;;;;5110427;27;20055;-57
2021/03/19 04:32:47;;;;;;;48.35;23.77;;;3.10;99.90;;;;;;5109694;28;20051;-56
2021/03/19 04:35:15;;;;;;;49.70;25.50;;;3.10;99.90;;;;;;5128246;27;20051;-57
2021/03/19 04:37:41;;;;;;;49.25;23.88;;;3.10;99.90;;;;;;5127199;27;20485;-56
2021/03/19 04:40:08;;;;;;;48.53;26.50;;;3.10;99.90;;;;;;5102872;27;20298;-55
2021/03/19 04:42:33;;;;;;;46.00;23.65;;;3.10;99.90;;;;;;5118482;27;20026;-55
2021/03/19 04:44:59;;;;;;;48.60;25.63;;;3.10;99.90;;;;;;5110653;28;20031;-55
2021/03/19 04:47:25;;;;;;;44.65;23.77;;;3.10;99.90;;;;;;5109478;28;20028;-56
2021/03/19 04:49:50;;;;;;;49.28;25.02;;;3.10;99.90;;;;;;5119165;28;20233;-52
2021/03/19 04:52:16;;;;;;;50.92;25.42;;;3.10;99.90;;;;;;5107500;28;20504;-56
2021/03/19 04:54:41;;;;;;;48.67;26.30;;;3.10;99.90;;;;;;5085858;28;20028;-53
2021/03/19 04:57:07;;;;;;;49.13;25.10;;;3.10;99.90;;;;;;5112638;28;20035;-53
2021/03/19 04:59:33;;;;;;;48.33;24.25;;;3.00;99.90;;;;;;5110071;28;20028;-53
2021/03/19 05:02:00;;;;;;;43.78;24.05;;;3.00;99.90;;;;;;5099528;28;20031;-56
2021/03/19 05:04:27;;;;;;;52.90;25.15;;;3.10;99.90;;;;;;5112521;28;20059;-52
2021/03/19 05:06:59;;;;;;;46.20;24.55;;;3.00;99.90;;;;;;5108208;28;20019;-52
2021/03/19 05:09:26;;;;;;;43.72;23.38;;;3.10;99.90;;;;;;5129763;28;20023;-55
2021/03/19 05:11:51;;;;;;;43.47;23.40;;;3.10;99.90;;;;;;5120837;28;20380;-56
2021/03/19 05:14:18;;;;;;;44.30;23.10;;;3.00;99.90;;;;;;5127320;28;20023;-56
2021/03/19 05:16:44;;;;;;;44.30;22.52;;;3.00;99.90;;;;;;5104625;28;20031;-57
2021/03/19 05:19:10;;;;;;;47.55;23.88;;;3.00;99.90;;;;;;5126906;28;20027;-54
2021/03/19 05:21:35;;;;;;;51.65;24.00;;;3.00;99.90;;;;;;5122940;28;20530;-56
2021/03/19 05:24:01;;;;;;;46.30;22.02;;;3.00;99.90;;;;;;5121747;28;20059;-56
2021/03/19 05:26:28;;;;;;;42.83;21.30;;;3.00;99.90;;;;;;5121895;28;20015;-56
2021/03/19 05:28:54;;;;;;;42.78;21.63;;;3.00;99.90;;;;;;5113770;28;20107;-55
2021/03/19 05:31:19;;;;;;;45.78;24.50;;;3.00;99.90;;;;;;5111484;28;20102;-55
2021/03/19 05:33:53;;;;;;;49.55;24.80;;;3.00;99.90;;;;;;5124219;28;20474;-53
2021/03/19 05:36:25;;;;;;;52.75;24.25;;;3.00;99.90;;;;;;5114244;28;20031;-55
2021/03/19 05:38:52;;;;;;;49.72;27.63;;;3.00;99.90;;;;;;5123556;28;20497;-53
2021/03/19 05:41:19;;;;;;;52.95;26.35;;;2.90;99.90;;;;;;5114452;28;20034;-58
2021/03/19 05:44:13;;;;;;;57.28;27.33;;;2.90;99.90;;;;;;5114687;28;20070;-56
2021/03/19 05:46:42;;;;;;;63.97;28.77;;;3.00;99.90;;;;;;5115108;27;20024;-54
2021/03/19 05:49:08;;;;;;;60.50;30.60;;;3.00;99.90;;;;;;5113275;27;20054;-55
2021/03/19 05:51:42;;;;;;;54.78;29.27;;;2.90;99.90;;;;;;5118911;27;20031;-56
2021/03/19 05:54:21;;;;;;;43.08;21.00;;;2.90;99.90;;;;;;5122157;27;20481;-55
2021/03/19 05:56:55;;;;;;;59.83;28.23;;;2.90;99.90;;;;;;5127174;27;20023;-55
2021/03/19 05:59:21;;;;;;;56.45;28.98;;;2.90;99.90;;;;;;5120993;27;20031;-55
2021/03/19 06:01:46;;;;;;;53.17;27.45;;;2.90;99.90;;;;;;5123585;27;20031;-55
2021/03/19 06:04:20;;;;;;;54.03;26.80;;;3.00;99.90;;;;;;5124251;27;20127;-54
2021/03/19 06:07:03;;;;;;;53.37;27.70;;;3.00;99.90;;;;;;5118253;27;20031;-55
2021/03/19 06:09:36;;;;;;;49.40;24.67;;;3.00;99.90;;;;;;5121689;27;20106;-55
2021/03/19 06:12:07;;;;;;;46.28;23.95;;;3.10;99.90;;;;;;5095312;28;20027;-55
2021/03/19 06:14:49;;;;;;;45.33;24.17;;;3.10;99.90;;;;;;5113657;27;20040;-58
2021/03/19 06:17:25;;;;;;;50.28;23.98;;;3.20;99.90;;;;;;5113249;27;20028;-52
2021/03/19 06:19:56;;;;;;;43.65;22.83;;;3.20;99.90;;;;;;5107053;27;20024;-53
2021/03/19 06:22:46;;;;;;;42.95;22.73;;;3.30;99.90;;;;;;5128568;27;20031;-55
2021/03/19 06:25:14;;;;;;;49.50;22.85;;;3.30;99.90;;;;;;5107441;27;20019;-54
2021/03/19 06:27:48;;;;;;;40.38;21.05;;;3.30;99.90;;;;;;5113079;28;20489;-55
2021/03/19 06:30:24;;;;;;;40.00;19.85;;;3.30;99.90;;;;;;5101273;28;20432;-56
2021/03/19 06:33:19;;;;;;;41.17;20.40;;;3.30;99.90;;;;;;5120300;27;20036;-54
2021/03/19 06:36:04;;;;;;;;;;;3.40;99.90;;;;;;5113115;27;20031;-52
2021/03/19 06:38:32;;;;;;;;;;;3.40;99.90;;;;;;5107972;28;19911;-53
2021/03/19 06:41:28;;;;;;;40.17;19.80;;;3.40;99.90;;;;;;5118321;27;19918;-52
2021/03/19 06:44:13;;;;;;;37.75;19.70;;;3.40;99.90;;;;;;5109745;27;20036;-51
2021/03/19 06:46:41;;;;;;;;;;;3.40;99.90;;;;;;5115057;27;20031;-55
2021/03/19 06:49:08;;;;;;;39.88;19.17;;;3.40;99.90;;;;;;5112151;27;19907;-55
2021/03/19 06:51:36;;;;;;;40.28;19.05;;;3.40;99.90;;;;;;5113289;27;20049;-52
2021/03/19 06:54:09;;;;;;;40.13;18.90;;;3.40;99.90;;;;;;5112417;27;20027;-54
2021/03/19 06:56:36;;;;;;;34.80;18.27;;;3.40;99.90;;;;;;5122690;27;20083;-53
2021/03/19 06:59:18;;;;;;;39.42;19.30;;;3.50;99.90;;;;;;5109798;27;20485;-57
2021/03/19 07:01:44;;;;;;;38.95;20.48;;;3.50;99.90;;;;;;5109458;27;20027;-55
2021/03/19 07:04:28;;;;;;;35.92;18.98;;;3.50;99.90;;;;;;5125973;27;20110;-56
2021/03/19 07:07:11;;;;;;;37.40;19.23;;;3.60;99.90;;;;;;5121858;27;20054;-56
2021/03/19 07:10:17;;;;;;;40.80;16.73;;;3.60;99.90;;;;;;5108476;27;20550;-56
2021/03/19 07:12:55;;;;;;;33.90;17.85;;;3.60;99.90;;;;;;5100031;27;20039;-55
2021/03/19 07:15:38;;;;;;;33.67;18.63;;;3.60;99.90;;;;;;5111310;27;20503;-55
2021/03/19 07:18:29;;;;;;;32.85;17.38;;;3.60;99.90;;;;;;5115708;27;20040;-54
2021/03/19 07:21:03;;;;;;;34.83;16.65;;;3.60;99.90;;;;;;5102838;27;20106;-56
2021/03/19 07:23:40;;;;;;;37.70;18.50;;;3.70;99.90;;;;;;5113868;27;20497;-56
2021/03/19 07:26:14;;;;;;;37.30;17.80;;;3.70;99.90;;;;;;5109146;27;20026;-56
2021/03/19 07:28:55;;;;;;;38.88;18.13;;;3.80;99.90;;;;;;5129928;27;20034;-56
2021/03/19 07:31:33;;;;;;;34.42;16.83;;;3.80;99.90;;;;;;5124097;27;20032;-53
2021/03/19 07:34:46;;;;;;;31.58;16.58;;;3.80;99.90;;;;;;5106245;27;20028;-51
2021/03/19 07:37:33;;;;;;;30.95;17.33;;;3.90;99.90;;;;;;5105497;27;20529;-50
2021/03/19 07:40:10;;;;;;;32.22;17.08;;;3.90;99.90;;;;;;5118703;27;20035;-51
2021/03/19 07:42:57;;;;;;;30.70;15.82;;;4.00;99.90;;;;;;5115376;27;20058;-53
2021/03/19 07:45:40;;;;;;;30.08;16.38;;;4.00;99.90;;;;;;5104348;27;20138;-50
2021/03/19 07:48:23;;;;;;;33.45;16.38;;;4.10;99.90;;;;;;5106753;28;20366;-51
2021/03/19 07:51:24;;;;;;;28.50;15.70;;;4.20;99.90;;;;;;5121235;27;20314;-53
2021/03/19 07:54:04;;;;;;;36.08;17.27;;;4.10;99.90;;;;;;5105782;27;20110;-51
2021/03/19 07:56:57;;;;;;;31.02;15.73;;;4.20;99.90;;;;;;5119870;27;20527;-52
2021/03/19 08:00:08;;;;;;;32.78;15.93;;;4.20;99.90;;;;;;5124039;27;20031;-51
2021/03/19 08:02:55;;;;;;;35.33;16.38;;;4.20;99.90;;;;;;5117815;27;20043;-52
2021/03/19 08:05:28;;;;;;;30.67;16.10;;;4.30;99.90;;;;;;5104093;27;20047;-52
2021/03/19 08:08:00;;;;;;;39.75;18.73;;;4.30;99.90;;;;;;5118882;27;20128;-50
2021/03/19 08:10:34;;;;;;;32.63;17.27;;;4.40;99.90;;;;;;5111505;27;20055;-49
2021/03/19 08:13:02;;;;;;;33.58;16.75;;;4.50;99.90;;;;;;5126217;27;20102;-49
2021/03/19 08:15:41;;;;;;;28.95;16.35;;;4.50;99.90;;;;;;5118337;27;20606;-53
2021/03/19 08:18:19;;;;;;;34.63;16.90;;;4.50;99.90;;;;;;5107317;27;20058;-53
2021/03/19 08:20:56;;;;;;;30.15;15.32;;;4.50;99.90;;;;;;5113990;27;20516;-52
2021/03/19 08:23:42;;;;;;;33.58;15.40;;;4.50;99.90;;;;;;5118258;27;20586;-50
2021/03/19 08:26:17;;;;;;;32.78;16.38;;;4.60;99.90;;;;;;5120902;27;20455;-50
2021/03/19 08:28:53;;;;;;;25.58;14.35;;;4.70;99.90;;;;;;5113201;27;20024;-52
2021/03/19 08:31:41;;;;;;;25.70;13.48;;;4.70;99.90;;;;;;5108244;27;20030;-52
2021/03/19 08:34:41;;;;;;;24.02;11.57;;;4.80;99.90;;;;;;5105705;27;20034;-49
2021/03/19 08:37:25;;;;;;;26.80;13.35;;;4.80;99.90;;;;;;5127311;27;20037;-49
2021/03/19 08:39:53;;;;;;;28.38;14.20;;;4.90;99.90;;;;;;5111123;27;20111;-53
2021/03/19 08:42:48;;;;;;;30.80;16.13;;;4.90;99.90;;;;;;5129100;28;20041;-54
2021/03/19 08:45:26;;;;;;;28.92;14.80;;;5.00;99.90;;;;;;5106076;28;20043;-49
2021/03/19 08:47:55;;;;;;;24.10;11.82;;;5.10;99.90;;;;;;5116070;27;20016;-52
2021/03/19 08:50:25;;;;;;;23.33;13.10;;;5.00;99.90;;;;;;5117598;28;20023;-53
2021/03/19 08:53:14;;;;;;;27.23;14.02;;;5.10;99.90;;;;;;5094582;28;20167;-52
2021/03/19 08:55:42;;;;;;;27.13;13.48;;;5.10;99.90;;;;;;5104067;28;20028;-51
2021/03/19 08:58:30;;;;;;;28.80;13.48;;;5.20;99.90;;;;;;5103155;28;20088;-48
2021/03/19 09:01:07;;;;;;;23.38;12.30;;;5.20;99.90;;;;;;5105618;28;20043;-51
2021/03/19 09:03:41;;;;;;;28.88;12.13;;;5.20;99.90;;;;;;5119714;28;20019;-48
2021/03/19 09:06:12;;;;;;;;;;;5.20;99.90;;;;;;5114283;28;20126;-49
2021/03/19 09:08:46;;;;;;;16.33;9.70;;;5.30;99.90;;;;;;5109236;28;19911;-50
2021/03/19 09:11:17;;;;;;;18.42;9.75;;;5.40;99.90;;;;;;5107808;28;20045;-51
2021/03/19 09:14:04;;;;;;;20.98;10.13;;;5.50;99.90;;;;;;5121497;28;20032;-47
2021/03/19 09:16:52;;;;;;;20.33;11.25;;;5.60;99.90;;;;;;5125103;28;20035;-48
2021/03/19 09:19:34;;;;;;;16.92;9.98;;;5.80;99.90;;;;;;5126878;28;20489;-51
2021/03/19 09:22:22;;;;;;;20.80;8.35;;;5.80;99.90;;;;;;5111514;27;20713;-54
2021/03/19 09:25:13;;;;;;;15.05;8.82;;;5.90;99.90;;;;;;5114761;27;20152;-50
2021/03/19 09:28:08;;;;;;;12.00;7.35;;;5.90;99.90;;;;;;5126028;27;20054;-51
2021/03/19 09:30:42;;;;;;;12.95;6.38;;;6.00;99.90;;;;;;5096729;27;20043;-53
2021/03/19 09:33:43;;;;;;;10.93;5.55;;;5.90;99.90;;;;;;5124935;27;20174;-49
2021/03/19 09:36:46;;;;;;;13.32;6.72;;;5.90;99.90;;;;;;5125849;27;20019;-52
2021/03/19 09:39:49;;;;;;;12.45;6.35;;;6.10;99.90;;;;;;5116289;27;20031;-51
2021/03/19 09:42:17;;;;;;;10.13;6.35;;;6.20;99.90;;;;;;5088099;27;20065;-52
2021/03/19 09:44:58;;;;;;;8.20;5.25;;;6.40;99.90;;;;;;5116035;27;20110;-51
2021/03/19 09:47:30;;;;;;;11.43;5.40;;;6.60;99.90;;;;;;5127430;27;20027;-51
2021/03/19 09:50:11;;;;;;;11.98;5.18;;;6.70;99.90;;;;;;5120593;27;20027;-52
2021/03/19 09:52:37;;;;;;;14.32;5.68;;;6.70;99.90;;;;;;5126055;27;20481;-52
2021/03/19 09:55:25;;;;;;;10.73;5.38;;;6.80;99.90;;;;;;5112814;27;20097;-53
2021/03/19 09:57:52;;;;;;;10.90;5.22;;;6.70;99.90;;;;;;5118022;27;20076;-50
2021/03/19 10:00:27;;;;;;;7.85;4.88;;;6.60;99.90;;;;;;5122501;27;20378;-51
2021/03/19 10:03:06;;;;;;;9.40;5.10;;;6.70;99.90;;;;;;5120968;27;20435;-49
2021/03/19 10:05:37;;;;;;;9.63;4.70;;;6.80;99.90;;;;;;5124307;27;20421;-52
2021/03/19 10:08:03;;;;;;;8.68;5.18;;;6.80;99.90;;;;;;5112611;27;20413;-52
2021/03/19 10:10:38;;;;;;;6.63;4.30;;;7.00;99.90;;;;;;5116981;27;20074;-50
2021/03/19 10:13:05;;;;;;;13.20;4.78;;;7.20;99.90;;;;;;5113150;27;20020;-51
2021/03/19 10:15:31;;;;;;;8.48;4.93;;;7.30;99.90;;;;;;5117690;27;20027;-51
2021/03/19 10:18:00;;;;;;;7.90;4.57;;;7.30;99.90;;;;;;5124685;27;20030;-52
2021/03/19 10:20:36;;;;;;;7.78;4.57;;;7.20;99.90;;;;;;5130360;27;20019;-51
2021/03/19 10:23:08;;;;;;;6.90;3.75;;;7.30;99.90;;;;;;5113205;27;20051;-54
2021/03/19 10:25:36;;;;;;;6.18;3.40;;;7.30;99.90;;;;;;5115398;27;20102;-52
2021/03/19 10:28:07;;;;;;;10.13;3.58;;;7.50;99.90;;;;;;5111491;27;20020;-49
2021/03/19 10:30:45;;;;;;;4.40;3.00;;;7.60;99.90;;;;;;5111346;27;20035;-50
2021/03/19 10:33:16;;;;;;;5.18;2.90;;;7.60;99.90;;;;;;5124000;27;20541;-54
2021/03/19 10:35:49;;;;;;;7.45;3.33;;;7.50;99.90;;;;;;5106824;28;20023;-54
2021/03/19 10:38:53;;;;;;;4.82;2.92;;;7.50;99.90;;;;;;5112886;27;20023;-53
2021/03/19 10:41:35;;;;;;;6.70;3.15;;;7.60;99.90;;;;;;5124345;27;20023;-50
2021/03/19 10:44:08;;;;;;;5.07;3.05;;;7.90;99.90;;;;;;5118280;27;20031;-52
2021/03/19 10:46:56;;;;;;;4.63;2.78;;;8.00;99.90;;;;;;5112632;27;20118;-53
2021/03/19 10:49:44;;;;;;;3.78;2.72;;;8.10;99.90;;;;;;5108585;27;20038;-52
2021/03/19 10:52:31;;;;;;;5.60;2.80;;;8.10;99.90;;;;;;5106108;28;20446;-52
2021/03/19 10:55:02;;;;;;;5.45;2.70;;;8.20;99.90;;;;;;5111688;27;20057;-54
2021/03/19 10:57:34;;;;;;;4.53;2.90;;;8.30;99.90;;;;;;5111867;27;20107;-51
2021/03/19 10:59:59;;;;;;;6.18;2.85;;;8.40;99.90;;;;;;5117271;27;20027;-54
2021/03/19 11:02:27;;;;;;;4.75;2.38;;;8.30;99.90;;;;;;5110719;27;20091;-54
2021/03/19 11:04:58;;;;;;;5.22;2.65;;;8.40;99.90;;;;;;5100209;28;20019;-53
2021/03/19 11:07:27;;;;;;;7.32;2.90;;;8.60;99.90;;;;;;5109465;27;20367;-54
2021/03/19 11:10:14;;;;;;;4.70;2.53;;;8.50;99.90;;;;;;5121312;27;20032;-55
2021/03/19 11:12:39;;;;;;;3.85;2.53;;;8.50;99.90;;;;;;5115743;27;20084;-54
2021/03/19 11:15:16;;;;;;;3.47;2.88;;;8.50;99.90;;;;;;5115139;27;20109;-50
2021/03/19 11:17:42;;;;;;;5.95;2.53;;;8.70;99.90;;;;;;5108355;27;20487;-55
2021/03/19 11:20:11;;;;;;;6.05;2.78;;;8.80;99.90;;;;;;5117409;27;20049;-53
2021/03/19 11:22:41;;;;;;;5.28;3.30;;;8.90;99.90;;;;;;5112104;28;20022;-50
2021/03/19 11:25:35;;;;;;;3.30;2.50;;;9.00;99.90;;;;;;5105266;27;20085;-51
2021/03/19 11:28:00;;;;;;;4.50;2.63;;;9.30;99.90;;;;;;5110053;27;20028;-53
2021/03/19 11:30:32;;;;;;;8.07;2.38;;;9.20;99.90;;;;;;5112938;27;20046;-50
2021/03/19 11:33:03;;;;;;;5.85;3.53;;;9.20;99.90;;;;;;5113211;27;20031;-52
2021/03/19 11:35:29;;;;;;;5.38;2.88;;;8.80;99.90;;;;;;5117679;27;20038;-54
2021/03/19 11:37:55;;;;;;;4.13;2.42;;;8.60;99.90;;;;;;5118813;27;20389;-53
2021/03/19 11:40:20;;;;;;;6.60;2.70;;;8.40;99.90;;;;;;5113132;27;20293;-51
2021/03/19 11:42:49;;;;;;;7.55;2.75;;;8.50;99.90;;;;;;5121630;27;20024;-51
2021/03/19 11:45:24;;;;;;;5.03;2.33;;;8.70;99.90;;;;;;5092696;27;20031;-49
2021/03/19 11:47:58;;;;;;;4.45;2.13;;;9.00;99.90;;;;;;5129197;27;20031;-52
2021/03/19 11:50:24;;;;;;;3.75;2.60;;;9.30;99.90;;;;;;5114315;27;20476;-50
2021/03/19 11:52:54;;;;;;;3.38;2.08;;;9.50;99.90;;;;;;5125891;27;20084;-53
2021/03/19 11:55:26;;;;;;;3.90;2.08;;;9.60;99.90;;;;;;5125656;27;20020;-51
2021/03/19 11:57:52;;;;;;;4.13;2.17;;;9.80;99.90;;;;;;5111482;27;20024;-49
2021/03/19 12:00:24;;;;;;;5.43;2.30;;;9.70;99.90;;;;;;5114975;27;20064;-50
2021/03/19 12:02:51;;;;;;;5.72;2.30;;;9.80;99.90;;;;;;5111031;27;20529;-49
2021/03/19 12:05:20;;;;;;;6.00;1.80;;;10.00;99.90;;;;;;5105880;27;20481;-52
2021/03/19 12:07:46;;;;;;;4.82;2.22;;;10.00;99.90;;;;;;5119394;27;20026;-54
2021/03/19 12:10:12;;;;;;;6.38;2.03;;;9.90;99.90;;;;;;5124424;27;20068;-54
2021/03/19 12:12:39;;;;;;;2.88;1.70;;;9.90;99.90;;;;;;5130998;27;20493;-54
2021/03/19 12:15:06;;;;;;;4.07;1.70;;;9.90;99.90;;;;;;5125969;27;20027;-52
2021/03/19 12:17:31;;;;;;;4.45;2.00;;;9.70;99.90;;;;;;5129998;27;20031;-50
2021/03/19 12:19:57;;;;;;;1.98;1.52;;;9.80;99.90;;;;;;5115475;27;20430;-54
2021/03/19 12:22:23;;;;;;;2.38;1.63;;;9.50;99.90;;;;;;5110770;28;20030;-55
2021/03/19 12:24:49;;;;;;;6.95;2.33;;;9.30;99.90;;;;;;5107881;27;20092;-51
2021/03/19 12:27:15;;;;;;;5.50;1.70;;;9.30;99.90;;;;;;5118898;27;20035;-52
2021/03/19 12:29:41;;;;;;;3.05;1.98;;;9.30;99.90;;;;;;5110702;28;20023;-56
2021/03/19 12:32:07;;;;;;;2.58;1.65;;;9.40;99.90;;;;;;5111186;27;20377;-51
2021/03/19 12:34:34;;;;;;;3.33;2.08;;;9.20;99.90;;;;;;5117882;27;20027;-51
2021/03/19 12:37:00;;;;;;;2.47;1.60;;;9.30;99.90;;;;;;5110236;28;20039;-55
2021/03/19 12:39:26;;;;;;;3.42;1.85;;;9.70;99.90;;;;;;5109546;27;20040;-54
2021/03/19 12:41:52;;;;;;;3.47;1.75;;;10.20;99.90;;;;;;5122888;27;20023;-55
2021/03/19 12:44:18;;;;;;;2.20;1.60;;;10.60;99.90;;;;;;5130832;27;20016;-51
2021/03/19 12:46:44;;;;;;;5.85;2.10;;;10.80;99.90;;;;;;5117334;27;20031;-52
2021/03/19 12:49:10;;;;;;;2.90;1.55;;;10.80;99.90;;;;;;5120024;27;20079;-53
2021/03/19 12:51:35;;;;;;;1.65;1.52;;;10.90;99.90;;;;;;5118443;27;20024;-51
2021/03/19 12:54:02;;;;;;;2.17;1.48;;;10.90;99.90;;;;;;5111431;28;20042;-51
2021/03/19 12:56:28;;;;;;;2.22;1.83;;;10.70;99.90;;;;;;5109631;28;20535;-52
2021/03/19 12:58:53;;;;;;;3.30;2.15;;;10.30;99.90;;;;;;5109193;28;20066;-54
2021/03/19 13:01:20;;;;;;;2.55;1.40;;;10.10;99.90;;;;;;5091668;28;20060;-52
2021/03/19 13:03:48;;;;;;;2.97;1.45;;;10.00;99.90;;;;;;5107100;28;20035;-54
2021/03/19 13:06:16;;;;;;;2.22;1.20;;;10.10;99.90;;;;;;5109820;28;20035;-52
2021/03/19 13:08:41;;;;;;;2.72;1.63;;;10.30;99.90;;;;;;5109629;28;20027;-53
2021/03/19 13:11:08;;;;;;;2.92;1.50;;;10.50;99.90;;;;;;5112400;28;20519;-51
2021/03/19 13:13:34;;;;;;;1.95;1.23;;;10.70;99.90;;;;;;5112624;28;20114;-53
2021/03/19 13:16:00;;;;;;;2.90;1.35;;;10.80;99.90;;;;;;5106087;28;20504;-53